sensor_id;sensor_type;location;lat;lon;timestamp;temperature;humidity
17296;DHT22;8766;51.480;6.872;2023-04-01T00:02:24;12.00;72.10
17296;DHT22;8766;51.480;6.872;2023-04-01T00:04:53;12.00;72.10
17296;DHT22;8766;51.480;6.872;2023-04-01T00:07:20;12.00;72.20
17296;DHT22;8766;51.480;6.872;2023-04-01T00:09:48;12.00;72.20
17296;DHT22;8766;51.480;6.872;2023-04-01T00:12:14;12.00;72.20
17296;DHT22;8766;51.480;6.872;2023-04-01T00:14:41;12.00;72.30
17296;DHT22;8766;51.480;6.872;2023-04-01T00:17:08;12.00;72.30
17296;DHT22;8766;51.480;6.872;2023-04-01T00:19:36;12.00;72.20
17296;DHT22;8766;51.480;6.872;2023-04-01T00:22:04;12.00;72.20
17296;DHT22;8766;51.480;6.872;2023-04-01T00:24:31;12.00;72.20
17296;DHT22;8766;51.480;6.872;2023-04-01T00:26:58;12.00;72.20
17296;DHT22;8766;51.480;6.872;2023-04-01T00:29:25;12.00;72.30
17296;DHT22;8766;51.480;6.872;2023-04-01T00:31:55;12.00;72.20
17296;DHT22;8766;51.480;6.872;2023-04-01T00:34:22;12.00;72.20
17296;DHT22;8766;51.480;6.872;2023-04-01T00:36:49;12.00;72.20
17296;DHT22;8766;51.480;6.872;2023-04-01T00:39:19;12.00;72.20
17296;DHT22;8766;51.480;6.872;2023-04-01T00:41:46;12.00;72.30
17296;DHT22;8766;51.480;6.872;2023-04-01T00:44:19;12.00;72.30
17296;DHT22;8766;51.480;6.872;2023-04-01T00:46:47;12.00;72.40
17296;DHT22;8766;51.480;6.872;2023-04-01T00:49:14;11.90;72.30
17296;DHT22;8766;51.480;6.872;2023-04-01T00:51:44;11.90;72.40
17296;DHT22;8766;51.480;6.872;2023-04-01T00:54:14;11.90;72.40
17296;DHT22;8766;51.480;6.872;2023-04-01T00:56:48;11.90;72.40
17296;DHT22;8766;51.480;6.872;2023-04-01T00:59:22;11.90;72.40
17296;DHT22;8766;51.480;6.872;2023-04-01T01:01:50;11.90;72.40
17296;DHT22;8766;51.480;6.872;2023-04-01T01:04:22;11.90;72.50
17296;DHT22;8766;51.480;6.872;2023-04-01T01:06:57;11.90;72.50
17296;DHT22;8766;51.480;6.872;2023-04-01T01:09:31;11.90;72.50
17296;DHT22;8766;51.480;6.872;2023-04-01T01:12:08;11.90;72.50
17296;DHT22;8766;51.480;6.872;2023-04-01T01:14:48;11.90;72.50
17296;DHT22;8766;51.480;6.872;2023-04-01T01:17:22;11.90;72.50
17296;DHT22;8766;51.480;6.872;2023-04-01T01:20:22;11.90;72.50
17296;DHT22;8766;51.480;6.872;2023-04-01T01:26:00;11.90;72.60
17296;DHT22;8766;51.480;6.872;2023-04-01T01:28:39;11.90;72.60
17296;DHT22;8766;51.480;6.872;2023-04-01T01:31:16;11.90;72.60
17296;DHT22;8766;51.480;6.872;2023-04-01T01:34:02;11.80;72.60
17296;DHT22;8766;51.480;6.872;2023-04-01T01:36:34;11.80;72.60
17296;DHT22;8766;51.480;6.872;2023-04-01T01:39:03;11.80;72.60
17296;DHT22;8766;51.480;6.872;2023-04-01T01:41:32;11.80;72.50
17296;DHT22;8766;51.480;6.872;2023-04-01T01:44:05;11.80;72.50
17296;DHT22;8766;51.480;6.872;2023-04-01T01:46:33;11.80;72.60
17296;DHT22;8766;51.480;6.872;2023-04-01T01:49:00;11.80;72.60
17296;DHT22;8766;51.480;6.872;2023-04-01T01:51:28;11.80;72.60
17296;DHT22;8766;51.480;6.872;2023-04-01T01:53:57;11.80;72.60
17296;DHT22;8766;51.480;6.872;2023-04-01T01:56:27;11.80;72.60
17296;DHT22;8766;51.480;6.872;2023-04-01T01:58:57;11.80;72.60
17296;DHT22;8766;51.480;6.872;2023-04-01T02:01:28;11.80;72.60
17296;DHT22;8766;51.480;6.872;2023-04-01T02:03:57;11.80;72.60
17296;DHT22;8766;51.480;6.872;2023-04-01T02:06:29;11.80;72.70
17296;DHT22;8766;51.480;6.872;2023-04-01T02:09:01;11.80;72.60
17296;DHT22;8766;51.480;6.872;2023-04-01T02:11:30;11.80;72.70
17296;DHT22;8766;51.480;6.872;2023-04-01T02:14:03;11.80;72.70
17296;DHT22;8766;51.480;6.872;2023-04-01T02:16:34;11.80;72.60
17296;DHT22;8766;51.480;6.872;2023-04-01T02:19:03;11.80;72.70
17296;DHT22;8766;51.480;6.872;2023-04-01T02:21:33;11.80;72.70
17296;DHT22;8766;51.480;6.872;2023-04-01T02:24:07;11.80;72.70
17296;DHT22;8766;51.480;6.872;2023-04-01T02:26:35;11.80;72.60
17296;DHT22;8766;51.480;6.872;2023-04-01T02:29:03;11.80;72.60
17296;DHT22;8766;51.480;6.872;2023-04-01T02:31:31;11.80;72.60
17296;DHT22;8766;51.480;6.872;2023-04-01T02:33:59;11.80;72.70
17296;DHT22;8766;51.480;6.872;2023-04-01T02:36:26;11.80;72.70
17296;DHT22;8766;51.480;6.872;2023-04-01T02:38:54;11.80;73.40
17296;DHT22;8766;51.480;6.872;2023-04-01T02:41:26;11.80;72.70
17296;DHT22;8766;51.480;6.872;2023-04-01T02:43:52;11.80;72.70
17296;DHT22;8766;51.480;6.872;2023-04-01T02:46:20;11.80;72.80
17296;DHT22;8766;51.480;6.872;2023-04-01T02:48:47;11.80;72.80
17296;DHT22;8766;51.480;6.872;2023-04-01T02:51:14;11.80;72.80
17296;DHT22;8766;51.480;6.872;2023-04-01T02:53:41;11.70;72.80
17296;DHT22;8766;51.480;6.872;2023-04-01T02:56:08;11.70;72.90
17296;DHT22;8766;51.480;6.872;2023-04-01T02:58:36;11.70;72.90
17296;DHT22;8766;51.480;6.872;2023-04-01T03:01:03;11.70;72.90
17296;DHT22;8766;51.480;6.872;2023-04-01T03:03:30;11.70;72.90
17296;DHT22;8766;51.480;6.872;2023-04-01T03:05:56;11.70;73.00
17296;DHT22;8766;51.480;6.872;2023-04-01T03:08:25;11.70;72.90
17296;DHT22;8766;51.480;6.872;2023-04-01T03:10:52;11.70;72.90
17296;DHT22;8766;51.480;6.872;2023-04-01T03:13:19;11.80;73.00
17296;DHT22;8766;51.480;6.872;2023-04-01T03:15:47;11.80;72.90
17296;DHT22;8766;51.480;6.872;2023-04-01T03:18:14;11.70;72.80
17296;DHT22;8766;51.480;6.872;2023-04-01T03:20:41;11.80;72.90
17296;DHT22;8766;51.480;6.872;2023-04-01T03:23:08;11.70;72.80
17296;DHT22;8766;51.480;6.872;2023-04-01T03:25:35;11.80;73.00
17296;DHT22;8766;51.480;6.872;2023-04-01T03:28:02;11.80;73.00
17296;DHT22;8766;51.480;6.872;2023-04-01T03:30:29;11.80;73.00
17296;DHT22;8766;51.480;6.872;2023-04-01T03:32:58;11.70;72.90
17296;DHT22;8766;51.480;6.872;2023-04-01T03:35:26;11.80;73.00
17296;DHT22;8766;51.480;6.872;2023-04-01T03:37:54;11.70;72.90
17296;DHT22;8766;51.480;6.872;2023-04-01T03:40:21;11.80;73.00
17296;DHT22;8766;51.480;6.872;2023-04-01T03:42:48;11.70;72.90
17296;DHT22;8766;51.480;6.872;2023-04-01T03:45:16;11.70;73.00
17296;DHT22;8766;51.480;6.872;2023-04-01T03:47:42;11.70;73.00
17296;DHT22;8766;51.480;6.872;2023-04-01T03:50:11;11.70;73.00
17296;DHT22;8766;51.480;6.872;2023-04-01T03:52:38;11.70;73.00
17296;DHT22;8766;51.480;6.872;2023-04-01T03:55:06;11.70;73.00
17296;DHT22;8766;51.480;6.872;2023-04-01T03:57:33;11.70;73.00
17296;DHT22;8766;51.480;6.872;2023-04-01T04:00:00;11.70;73.00
17296;DHT22;8766;51.480;6.872;2023-04-01T04:02:27;11.70;73.00
17296;DHT22;8766;51.480;6.872;2023-04-01T04:04:54;11.70;73.00
17296;DHT22;8766;51.480;6.872;2023-04-01T04:07:22;11.70;73.10
17296;DHT22;8766;51.480;6.872;2023-04-01T04:09:49;11.70;73.10
17296;DHT22;8766;51.480;6.872;2023-04-01T04:12:16;11.70;73.10
17296;DHT22;8766;51.480;6.872;2023-04-01T04:14:43;11.70;73.00
17296;DHT22;8766;51.480;6.872;2023-04-01T04:17:10;11.70;73.00
17296;DHT22;8766;51.480;6.872;2023-04-01T04:19:41;11.80;73.10
17296;DHT22;8766;51.480;6.872;2023-04-01T04:22:08;11.80;73.10
17296;DHT22;8766;51.480;6.872;2023-04-01T04:24:37;11.70;73.10
17296;DHT22;8766;51.480;6.872;2023-04-01T04:27:04;11.70;73.10
17296;DHT22;8766;51.480;6.872;2023-04-01T04:29:31;11.70;73.10
17296;DHT22;8766;51.480;6.872;2023-04-01T04:31:58;11.70;73.80
17296;DHT22;8766;51.480;6.872;2023-04-01T04:34:25;11.70;73.20
17296;DHT22;8766;51.480;6.872;2023-04-01T04:36:52;11.70;73.10
17296;DHT22;8766;51.480;6.872;2023-04-01T04:39:19;11.70;73.20
17296;DHT22;8766;51.480;6.872;2023-04-01T04:41:47;11.70;73.20
17296;DHT22;8766;51.480;6.872;2023-04-01T04:44:14;11.70;73.10
17296;DHT22;8766;51.480;6.872;2023-04-01T04:46:41;11.80;73.20
17296;DHT22;8766;51.480;6.872;2023-04-01T04:49:08;11.80;73.20
17296;DHT22;8766;51.480;6.872;2023-04-01T04:51:35;11.70;73.20
17296;DHT22;8766;51.480;6.872;2023-04-01T04:54:03;11.70;73.20
17296;DHT22;8766;51.480;6.872;2023-04-01T04:56:30;11.70;73.10
17296;DHT22;8766;51.480;6.872;2023-04-01T04:58:59;11.80;73.20
17296;DHT22;8766;51.480;6.872;2023-04-01T05:01:26;11.80;73.20
17296;DHT22;8766;51.480;6.872;2023-04-01T05:03:53;11.80;73.20
17296;DHT22;8766;51.480;6.872;2023-04-01T05:06:20;11.80;73.20
17296;DHT22;8766;51.480;6.872;2023-04-01T05:08:47;11.80;73.20
17296;DHT22;8766;51.480;6.872;2023-04-01T05:11:15;11.70;73.20
17296;DHT22;8766;51.480;6.872;2023-04-01T05:13:43;11.70;73.20
17296;DHT22;8766;51.480;6.872;2023-04-01T05:16:13;11.70;73.20
17296;DHT22;8766;51.480;6.872;2023-04-01T05:18:41;11.70;73.20
17296;DHT22;8766;51.480;6.872;2023-04-01T05:21:09;11.70;73.20
17296;DHT22;8766;51.480;6.872;2023-04-01T05:23:37;11.70;73.20
17296;DHT22;8766;51.480;6.872;2023-04-01T05:26:04;11.70;73.20
17296;DHT22;8766;51.480;6.872;2023-04-01T05:28:31;11.70;73.20
17296;DHT22;8766;51.480;6.872;2023-04-01T05:30:59;11.70;73.30
17296;DHT22;8766;51.480;6.872;2023-04-01T05:33:28;11.70;73.20
17296;DHT22;8766;51.480;6.872;2023-04-01T05:35:55;11.70;73.30
17296;DHT22;8766;51.480;6.872;2023-04-01T05:38:22;11.70;73.30
17296;DHT22;8766;51.480;6.872;2023-04-01T05:40:49;11.70;73.30
17296;DHT22;8766;51.480;6.872;2023-04-01T05:43:15;11.70;73.30
17296;DHT22;8766;51.480;6.872;2023-04-01T05:45:42;11.70;73.20
17296;DHT22;8766;51.480;6.872;2023-04-01T05:48:09;11.70;73.20
17296;DHT22;8766;51.480;6.872;2023-04-01T05:50:39;11.70;73.30
17296;DHT22;8766;51.480;6.872;2023-04-01T05:53:06;11.70;73.30
17296;DHT22;8766;51.480;6.872;2023-04-01T05:55:34;11.70;73.30
17296;DHT22;8766;51.480;6.872;2023-04-01T05:58:01;11.70;73.30
17296;DHT22;8766;51.480;6.872;2023-04-01T06:00:28;11.80;73.30
17296;DHT22;8766;51.480;6.872;2023-04-01T06:02:58;11.80;73.30
17296;DHT22;8766;51.480;6.872;2023-04-01T06:05:27;11.80;73.30
17296;DHT22;8766;51.480;6.872;2023-04-01T06:07:59;11.80;73.30
17296;DHT22;8766;51.480;6.872;2023-04-01T06:10:39;11.80;73.30
17296;DHT22;8766;51.480;6.872;2023-04-01T06:13:10;11.80;73.30
17296;DHT22;8766;51.480;6.872;2023-04-01T06:15:42;11.80;73.30
17296;DHT22;8766;51.480;6.872;2023-04-01T06:18:41;11.80;73.20
17296;DHT22;8766;51.480;6.872;2023-04-01T06:21:27;11.80;73.30
17296;DHT22;8766;51.480;6.872;2023-04-01T06:24:08;11.80;73.30
17296;DHT22;8766;51.480;6.872;2023-04-01T06:26:49;11.80;73.20
17296;DHT22;8766;51.480;6.872;2023-04-01T06:29:54;11.80;73.20
17296;DHT22;8766;51.480;6.872;2023-04-01T06:32:47;11.80;73.30
17296;DHT22;8766;51.480;6.872;2023-04-01T06:35:31;11.80;73.20
17296;DHT22;8766;51.480;6.872;2023-04-01T06:43:47;11.80;73.30
17296;DHT22;8766;51.480;6.872;2023-04-01T06:46:20;11.80;73.20
17296;DHT22;8766;51.480;6.872;2023-04-01T06:49:02;11.80;73.10
17296;DHT22;8766;51.480;6.872;2023-04-01T06:51:39;11.80;73.10
17296;DHT22;8766;51.480;6.872;2023-04-01T06:54:11;11.90;73.20
17296;DHT22;8766;51.480;6.872;2023-04-01T06:56:43;11.90;73.10
17296;DHT22;8766;51.480;6.872;2023-04-01T06:59:13;11.90;73.10
17296;DHT22;8766;51.480;6.872;2023-04-01T07:01:45;11.90;73.10
17296;DHT22;8766;51.480;6.872;2023-04-01T07:04:15;11.90;73.10
17296;DHT22;8766;51.480;6.872;2023-04-01T07:06:46;11.90;73.20
17296;DHT22;8766;51.480;6.872;2023-04-01T07:09:18;11.90;73.10
17296;DHT22;8766;51.480;6.872;2023-04-01T07:11:47;11.90;73.20
17296;DHT22;8766;51.480;6.872;2023-04-01T07:14:18;11.90;73.10
17296;DHT22;8766;51.480;6.872;2023-04-01T07:16:49;11.90;73.10
17296;DHT22;8766;51.480;6.872;2023-04-01T07:19:23;11.90;73.10
17296;DHT22;8766;51.480;6.872;2023-04-01T07:21:55;11.90;73.10
17296;DHT22;8766;51.480;6.872;2023-04-01T07:24:26;11.90;73.10
17296;DHT22;8766;51.480;6.872;2023-04-01T07:26:57;12.00;73.10
17296;DHT22;8766;51.480;6.872;2023-04-01T07:29:26;12.00;73.00
17296;DHT22;8766;51.480;6.872;2023-04-01T07:32:09;12.10;72.90
17296;DHT22;8766;51.480;6.872;2023-04-01T07:34:45;12.10;72.90
17296;DHT22;8766;51.480;6.872;2023-04-01T07:37:16;12.10;72.80
17296;DHT22;8766;51.480;6.872;2023-04-01T07:39:51;12.00;72.80
17296;DHT22;8766;51.480;6.872;2023-04-01T07:42:30;12.10;73.00
17296;DHT22;8766;51.480;6.872;2023-04-01T07:45:07;12.00;72.90
17296;DHT22;8766;51.480;6.872;2023-04-01T07:47:45;12.00;72.90
17296;DHT22;8766;51.480;6.872;2023-04-01T07:50:21;12.00;73.00
17296;DHT22;8766;51.480;6.872;2023-04-01T07:52:59;12.00;73.00
17296;DHT22;8766;51.480;6.872;2023-04-01T07:55:32;12.00;73.00
17296;DHT22;8766;51.480;6.872;2023-04-01T07:58:07;12.00;72.90
17296;DHT22;8766;51.480;6.872;2023-04-01T08:00:42;12.00;72.90
17296;DHT22;8766;51.480;6.872;2023-04-01T08:03:29;12.00;73.00
17296;DHT22;8766;51.480;6.872;2023-04-01T08:06:01;12.00;73.00
17296;DHT22;8766;51.480;6.872;2023-04-01T08:08:39;12.00;73.10
17296;DHT22;8766;51.480;6.872;2023-04-01T08:11:21;12.00;73.10
17296;DHT22;8766;51.480;6.872;2023-04-01T08:14:00;12.00;73.10
17296;DHT22;8766;51.480;6.872;2023-04-01T08:16:34;12.00;73.20
17296;DHT22;8766;51.480;6.872;2023-04-01T08:19:13;12.00;73.20
17296;DHT22;8766;51.480;6.872;2023-04-01T08:21:43;12.00;73.10
17296;DHT22;8766;51.480;6.872;2023-04-01T08:24:17;12.00;73.10
17296;DHT22;8766;51.480;6.872;2023-04-01T08:26:49;12.00;73.10
17296;DHT22;8766;51.480;6.872;2023-04-01T08:29:21;12.10;73.10
17296;DHT22;8766;51.480;6.872;2023-04-01T08:31:51;12.10;73.00
17296;DHT22;8766;51.480;6.872;2023-04-01T08:34:23;12.10;73.00
17296;DHT22;8766;51.480;6.872;2023-04-01T08:36:53;12.10;73.00
17296;DHT22;8766;51.480;6.872;2023-04-01T08:39:29;12.10;73.00
17296;DHT22;8766;51.480;6.872;2023-04-01T08:42:11;12.10;73.10
17296;DHT22;8766;51.480;6.872;2023-04-01T08:45:11;12.10;73.10
17296;DHT22;8766;51.480;6.872;2023-04-01T08:47:50;12.10;73.00
17296;DHT22;8766;51.480;6.872;2023-04-01T08:50:31;12.10;73.00
17296;DHT22;8766;51.480;6.872;2023-04-01T08:53:06;12.10;73.00
17296;DHT22;8766;51.480;6.872;2023-04-01T08:55:38;12.10;73.00
17296;DHT22;8766;51.480;6.872;2023-04-01T09:01:17;12.10;73.00
17296;DHT22;8766;51.480;6.872;2023-04-01T09:04:17;12.10;73.00
17296;DHT22;8766;51.480;6.872;2023-04-01T09:06:59;12.20;72.90
17296;DHT22;8766;51.480;6.872;2023-04-01T09:10:15;12.20;72.80
17296;DHT22;8766;51.480;6.872;2023-04-01T09:12:55;12.20;72.80
17296;DHT22;8766;51.480;6.872;2023-04-01T09:15:42;12.20;72.80
17296;DHT22;8766;51.480;6.872;2023-04-01T09:21:37;12.30;72.70
17296;DHT22;8766;51.480;6.872;2023-04-01T09:24:21;12.30;72.60
17296;DHT22;8766;51.480;6.872;2023-04-01T09:27:04;12.30;72.60
17296;DHT22;8766;51.480;6.872;2023-04-01T09:29:54;12.40;72.60
17296;DHT22;8766;51.480;6.872;2023-04-01T09:32:48;12.40;72.50
17296;DHT22;8766;51.480;6.872;2023-04-01T09:35:23;12.40;72.40
17296;DHT22;8766;51.480;6.872;2023-04-01T09:37:57;12.50;72.20
17296;DHT22;8766;51.480;6.872;2023-04-01T09:40:37;12.60;72.20
17296;DHT22;8766;51.480;6.872;2023-04-01T09:43:26;12.70;72.10
17296;DHT22;8766;51.480;6.872;2023-04-01T09:46:14;12.60;72.00
17296;DHT22;8766;51.480;6.872;2023-04-01T09:49:05;12.60;72.00
17296;DHT22;8766;51.480;6.872;2023-04-01T09:51:41;12.60;72.10
17296;DHT22;8766;51.480;6.872;2023-04-01T09:54:28;12.70;72.10
17296;DHT22;8766;51.480;6.872;2023-04-01T10:00:20;12.70;72.10
17296;DHT22;8766;51.480;6.872;2023-04-01T10:09:25;12.70;72.20
17296;DHT22;8766;51.480;6.872;2023-04-01T10:15:22;12.70;72.10
17296;DHT22;8766;51.480;6.872;2023-04-01T10:21:25;12.80;71.80
17296;DHT22;8766;51.480;6.872;2023-04-01T10:24:30;12.90;71.70
17296;DHT22;8766;51.480;6.872;2023-04-01T10:27:29;12.90;71.70
17296;DHT22;8766;51.480;6.872;2023-04-01T10:33:24;12.80;71.90
17296;DHT22;8766;51.480;6.872;2023-04-01T10:36:25;12.80;72.00
17296;DHT22;8766;51.480;6.872;2023-04-01T10:39:34;12.80;72.00
17296;DHT22;8766;51.480;6.872;2023-04-01T10:42:27;12.80;72.10
17296;DHT22;8766;51.480;6.872;2023-04-01T10:48:28;12.70;72.10
17296;DHT22;8766;51.480;6.872;2023-04-01T10:51:20;12.70;72.20
17296;DHT22;8766;51.480;6.872;2023-04-01T10:56:59;12.60;72.30
17296;DHT22;8766;51.480;6.872;2023-04-01T11:00:16;12.60;72.40
17296;DHT22;8766;51.480;6.872;2023-04-01T11:06:45;12.70;72.40
17296;DHT22;8766;51.480;6.872;2023-04-01T11:12:55;12.80;72.00
17296;DHT22;8766;51.480;6.872;2023-04-01T11:15:47;12.90;72.00
17296;DHT22;8766;51.480;6.872;2023-04-01T11:27:31;12.90;72.10
17296;DHT22;8766;51.480;6.872;2023-04-01T11:30:15;12.90;72.00
17296;DHT22;8766;51.480;6.872;2023-04-01T11:33:00;12.90;72.10
17296;DHT22;8766;51.480;6.872;2023-04-01T11:38:26;12.90;72.00
17296;DHT22;8766;51.480;6.872;2023-04-01T11:41:01;13.00;72.00
17296;DHT22;8766;51.480;6.872;2023-04-01T11:43:34;13.00;72.00
17296;DHT22;8766;51.480;6.872;2023-04-01T11:46:10;13.00;72.00
17296;DHT22;8766;51.480;6.872;2023-04-01T11:48:54;13.00;71.90
17296;DHT22;8766;51.480;6.872;2023-04-01T11:51:50;13.10;71.90
17296;DHT22;8766;51.480;6.872;2023-04-01T11:55:02;13.10;71.90
17296;DHT22;8766;51.480;6.872;2023-04-01T11:58:02;13.20;71.80
17296;DHT22;8766;51.480;6.872;2023-04-01T12:00:55;13.20;71.60
17296;DHT22;8766;51.480;6.872;2023-04-01T12:03:57;13.20;71.60
17296;DHT22;8766;51.480;6.872;2023-04-01T12:06:34;13.40;71.50
17296;DHT22;8766;51.480;6.872;2023-04-01T12:09:12;13.40;71.30
17296;DHT22;8766;51.480;6.872;2023-04-01T12:11:48;13.50;71.20
17296;DHT22;8766;51.480;6.872;2023-04-01T12:14:21;13.50;71.10
17296;DHT22;8766;51.480;6.872;2023-04-01T12:16:58;13.60;71.70
17296;DHT22;8766;51.480;6.872;2023-04-01T12:19:35;13.60;71.00
17296;DHT22;8766;51.480;6.872;2023-04-01T12:22:23;13.60;71.00
17296;DHT22;8766;51.480;6.872;2023-04-01T12:24:58;13.60;71.00
17296;DHT22;8766;51.480;6.872;2023-04-01T12:27:43;13.60;71.00
17296;DHT22;8766;51.480;6.872;2023-04-01T12:30:26;13.60;71.00
17296;DHT22;8766;51.480;6.872;2023-04-01T12:33:05;13.60;71.20
17296;DHT22;8766;51.480;6.872;2023-04-01T12:35:52;13.50;71.30
17296;DHT22;8766;51.480;6.872;2023-04-01T12:38:31;13.50;72.10
17296;DHT22;8766;51.480;6.872;2023-04-01T12:41:09;13.40;71.60
17296;DHT22;8766;51.480;6.872;2023-04-01T12:44:02;13.30;71.80
17296;DHT22;8766;51.480;6.872;2023-04-01T12:46:42;13.30;72.00
17296;DHT22;8766;51.480;6.872;2023-04-01T12:49:32;13.20;72.00
17296;DHT22;8766;51.480;6.872;2023-04-01T12:52:10;13.20;72.10
17296;DHT22;8766;51.480;6.872;2023-04-01T12:55:05;13.20;72.10
17296;DHT22;8766;51.480;6.872;2023-04-01T12:57:58;13.20;72.20
17296;DHT22;8766;51.480;6.872;2023-04-01T13:00:44;13.10;72.30
17296;DHT22;8766;51.480;6.872;2023-04-01T13:03:27;13.10;72.50
17296;DHT22;8766;51.480;6.872;2023-04-01T13:06:17;13.00;72.50
17296;DHT22;8766;51.480;6.872;2023-04-01T13:08:53;13.00;72.70
17296;DHT22;8766;51.480;6.872;2023-04-01T13:11:30;13.00;72.80
17296;DHT22;8766;51.480;6.872;2023-04-01T13:14:29;13.00;72.80
17296;DHT22;8766;51.480;6.872;2023-04-01T13:17:08;12.90;72.70
17296;DHT22;8766;51.480;6.872;2023-04-01T13:19:43;12.90;72.80
17296;DHT22;8766;51.480;6.872;2023-04-01T13:22:16;12.90;72.80
17296;DHT22;8766;51.480;6.872;2023-04-01T13:24:51;12.90;72.80
17296;DHT22;8766;51.480;6.872;2023-04-01T13:27:25;13.00;72.80
17296;DHT22;8766;51.480;6.872;2023-04-01T13:30:07;13.00;72.80
17296;DHT22;8766;51.480;6.872;2023-04-01T13:32:45;13.10;72.60
17296;DHT22;8766;51.480;6.872;2023-04-01T13:35:23;13.10;72.50
17296;DHT22;8766;51.480;6.872;2023-04-01T13:38:08;13.10;72.50
17296;DHT22;8766;51.480;6.872;2023-04-01T13:40:48;13.10;72.40
17296;DHT22;8766;51.480;6.872;2023-04-01T13:43:19;13.10;72.40
17296;DHT22;8766;51.480;6.872;2023-04-01T13:55:07;13.00;72.80
17296;DHT22;8766;51.480;6.872;2023-04-01T13:57:53;13.00;72.90
17296;DHT22;8766;51.480;6.872;2023-04-01T14:00:28;12.90;73.00
17296;DHT22;8766;51.480;6.872;2023-04-01T14:03:09;12.90;73.00
17296;DHT22;8766;51.480;6.872;2023-04-01T14:05:50;12.90;73.20
17296;DHT22;8766;51.480;6.872;2023-04-01T14:08:29;12.80;73.20
17296;DHT22;8766;51.480;6.872;2023-04-01T14:11:10;12.80;73.30
17296;DHT22;8766;51.480;6.872;2023-04-01T14:13:44;12.80;73.20
17296;DHT22;8766;51.480;6.872;2023-04-01T14:19:40;12.80;73.30
17296;DHT22;8766;51.480;6.872;2023-04-01T14:22:17;12.80;73.30
17296;DHT22;8766;51.480;6.872;2023-04-01T14:24:57;12.80;73.20
17296;DHT22;8766;51.480;6.872;2023-04-01T14:27:41;12.90;73.10
17296;DHT22;8766;51.480;6.872;2023-04-01T14:33:21;13.00;73.00
17296;DHT22;8766;51.480;6.872;2023-04-01T14:35:56;13.00;72.90
17296;DHT22;8766;51.480;6.872;2023-04-01T14:38:35;13.10;72.80
17296;DHT22;8766;51.480;6.872;2023-04-01T14:41:19;13.10;72.70
17296;DHT22;8766;51.480;6.872;2023-04-01T14:44:00;13.10;72.60
17296;DHT22;8766;51.480;6.872;2023-04-01T14:49:43;13.10;72.60
17296;DHT22;8766;51.480;6.872;2023-04-01T14:52:15;13.10;72.60
17296;DHT22;8766;51.480;6.872;2023-04-01T14:54:44;13.20;72.70
17296;DHT22;8766;51.480;6.872;2023-04-01T14:57:14;13.20;73.30
17296;DHT22;8766;51.480;6.872;2023-04-01T14:59:48;13.20;72.50
17296;DHT22;8766;51.480;6.872;2023-04-01T15:02:43;13.20;72.50
17296;DHT22;8766;51.480;6.872;2023-04-01T15:05:16;13.30;72.60
17296;DHT22;8766;51.480;6.872;2023-04-01T15:08:01;13.30;72.50
17296;DHT22;8766;51.480;6.872;2023-04-01T15:10:42;13.30;72.40
17296;DHT22;8766;51.480;6.872;2023-04-01T15:13:13;13.40;72.40
17296;DHT22;8766;51.480;6.872;2023-04-01T15:15:56;13.40;72.30
17296;DHT22;8766;51.480;6.872;2023-04-01T15:18:36;13.40;72.30
17296;DHT22;8766;51.480;6.872;2023-04-01T15:21:31;13.30;72.30
17296;DHT22;8766;51.480;6.872;2023-04-01T15:24:09;13.30;72.40
17296;DHT22;8766;51.480;6.872;2023-04-01T15:27:06;13.30;72.50
17296;DHT22;8766;51.480;6.872;2023-04-01T15:32:46;13.20;72.80
17296;DHT22;8766;51.480;6.872;2023-04-01T15:35:25;13.20;72.70
17296;DHT22;8766;51.480;6.872;2023-04-01T15:37:56;13.20;72.70
17296;DHT22;8766;51.480;6.872;2023-04-01T15:40:29;13.30;72.70
17296;DHT22;8766;51.480;6.872;2023-04-01T15:43:15;13.30;72.70
17296;DHT22;8766;51.480;6.872;2023-04-01T15:45:54;13.30;72.80
17296;DHT22;8766;51.480;6.872;2023-04-01T15:48:49;13.30;72.80
17296;DHT22;8766;51.480;6.872;2023-04-01T15:51:27;13.20;72.70
17296;DHT22;8766;51.480;6.872;2023-04-01T15:54:19;13.20;72.80
17296;DHT22;8766;51.480;6.872;2023-04-01T15:56:55;13.20;72.90
17296;DHT22;8766;51.480;6.872;2023-04-01T16:02:23;13.10;73.00
17296;DHT22;8766;51.480;6.872;2023-04-01T16:04:58;13.20;73.20
17296;DHT22;8766;51.480;6.872;2023-04-01T16:07:55;13.10;73.20
17296;DHT22;8766;51.480;6.872;2023-04-01T16:10:38;13.10;73.30
17296;DHT22;8766;51.480;6.872;2023-04-01T16:13:27;13.00;73.30
17296;DHT22;8766;51.480;6.872;2023-04-01T16:16:04;13.00;73.40
17296;DHT22;8766;51.480;6.872;2023-04-01T16:18:49;13.00;73.50
17296;DHT22;8766;51.480;6.872;2023-04-01T16:21:35;12.90;73.50
17296;DHT22;8766;51.480;6.872;2023-04-01T16:24:13;12.90;73.70
17296;DHT22;8766;51.480;6.872;2023-04-01T16:26:47;12.80;73.70
17296;DHT22;8766;51.480;6.872;2023-04-01T16:29:22;12.80;73.70
17296;DHT22;8766;51.480;6.872;2023-04-01T16:31:55;12.80;73.80
17296;DHT22;8766;51.480;6.872;2023-04-01T16:34:29;12.80;73.90
17296;DHT22;8766;51.480;6.872;2023-04-01T16:37:03;12.80;74.00
17296;DHT22;8766;51.480;6.872;2023-04-01T16:39:41;12.70;74.00
17296;DHT22;8766;51.480;6.872;2023-04-01T16:42:25;12.80;74.10
17296;DHT22;8766;51.480;6.872;2023-04-01T16:44:56;12.80;74.10
17296;DHT22;8766;51.480;6.872;2023-04-01T16:47:29;12.80;74.10
17296;DHT22;8766;51.480;6.872;2023-04-01T16:49:59;12.70;74.10
17296;DHT22;8766;51.480;6.872;2023-04-01T16:52:47;12.70;74.00
17296;DHT22;8766;51.480;6.872;2023-04-01T16:55:18;12.70;74.10
17296;DHT22;8766;51.480;6.872;2023-04-01T16:57:50;12.70;74.00
17296;DHT22;8766;51.480;6.872;2023-04-01T17:00:24;12.70;74.10
17296;DHT22;8766;51.480;6.872;2023-04-01T17:03:01;12.70;74.10
17296;DHT22;8766;51.480;6.872;2023-04-01T17:05:40;12.70;74.10
17296;DHT22;8766;51.480;6.872;2023-04-01T17:08:17;12.70;74.20
17296;DHT22;8766;51.480;6.872;2023-04-01T17:10:52;12.70;74.20
17296;DHT22;8766;51.480;6.872;2023-04-01T17:13:34;12.70;74.20
17296;DHT22;8766;51.480;6.872;2023-04-01T17:16:14;12.70;74.30
17296;DHT22;8766;51.480;6.872;2023-04-01T17:18:50;12.60;74.20
17296;DHT22;8766;51.480;6.872;2023-04-01T17:21:24;12.60;74.30
17296;DHT22;8766;51.480;6.872;2023-04-01T17:23:53;12.60;74.30
17296;DHT22;8766;51.480;6.872;2023-04-01T17:26:33;12.60;74.30
17296;DHT22;8766;51.480;6.872;2023-04-01T17:29:11;12.60;74.40
17296;DHT22;8766;51.480;6.872;2023-04-01T17:31:46;12.60;74.40
17296;DHT22;8766;51.480;6.872;2023-04-01T17:34:52;12.60;74.40
17296;DHT22;8766;51.480;6.872;2023-04-01T17:37:40;12.60;74.40
17296;DHT22;8766;51.480;6.872;2023-04-01T17:40:21;12.50;74.40
17296;DHT22;8766;51.480;6.872;2023-04-01T17:42:59;12.60;74.50
17296;DHT22;8766;51.480;6.872;2023-04-01T17:45:36;12.50;74.50
17296;DHT22;8766;51.480;6.872;2023-04-01T17:48:16;12.50;74.50
17296;DHT22;8766;51.480;6.872;2023-04-01T17:50:57;12.50;74.60
17296;DHT22;8766;51.480;6.872;2023-04-01T17:53:36;12.50;74.60
17296;DHT22;8766;51.480;6.872;2023-04-01T17:56:14;12.50;74.60
17296;DHT22;8766;51.480;6.872;2023-04-01T17:58:48;12.50;74.60
17296;DHT22;8766;51.480;6.872;2023-04-01T18:01:33;12.50;74.60
17296;DHT22;8766;51.480;6.872;2023-04-01T18:04:21;12.50;74.60
17296;DHT22;8766;51.480;6.872;2023-04-01T18:07:08;12.50;74.60